sensor_id;sensor_type;location;lat;lon;timestamp;P1;durP1;ratioP1;P2;durP2;ratioP2
64789;SDS011;51223;51.816;5.862;2022-08-30T00:01:24;4.35;;;1.13;;
64789;SDS011;51223;51.816;5.862;2022-08-30T00:03:52;1.60;;;1.20;;
64789;SDS011;51223;51.816;5.862;2022-08-30T00:06:23;2.00;;;1.08;;
64789;SDS011;51223;51.816;5.862;2022-08-30T00:08:49;3.20;;;1.50;;
64789;SDS011;51223;51.816;5.862;2022-08-30T00:11:17;6.57;;;1.42;;
64789;SDS011;51223;51.816;5.862;2022-08-30T00:13:46;5.68;;;1.55;;
64789;SDS011;51223;51.816;5.862;2022-08-30T00:16:15;1.42;;;0.90;;
64789;SDS011;51223;51.816;5.862;2022-08-30T00:18:41;1.60;;;1.08;;
64789;SDS011;51223;51.816;5.862;2022-08-30T00:21:08;2.60;;;1.25;;
64789;SDS011;51223;51.816;5.862;2022-08-30T00:23:34;3.88;;;1.60;;
64789;SDS011;51223;51.816;5.862;2022-08-30T00:26:00;1.85;;;1.30;;
64789;SDS011;51223;51.816;5.862;2022-08-30T00:28:27;5.28;;;1.60;;
64789;SDS011;51223;51.816;5.862;2022-08-30T00:30:53;1.35;;;1.17;;
64789;SDS011;51223;51.816;5.862;2022-08-30T00:33:19;2.72;;;1.75;;
64789;SDS011;51223;51.816;5.862;2022-08-30T00:35:45;2.28;;;1.25;;
64789;SDS011;51223;51.816;5.862;2022-08-30T00:38:11;1.75;;;1.20;;
64789;SDS011;51223;51.816;5.862;2022-08-30T00:40:38;1.63;;;1.10;;
64789;SDS011;51223;51.816;5.862;2022-08-30T00:43:07;1.17;;;1.00;;
64789;SDS011;51223;51.816;5.862;2022-08-30T00:45:39;3.95;;;1.60;;
64789;SDS011;51223;51.816;5.862;2022-08-30T00:48:05;1.60;;;1.48;;
64789;SDS011;51223;51.816;5.862;2022-08-30T00:50:41;2.13;;;1.23;;
64789;SDS011;51223;51.816;5.862;2022-08-30T00:53:13;4.90;;;1.70;;
64789;SDS011;51223;51.816;5.862;2022-08-30T00:55:42;5.45;;;1.55;;
64789;SDS011;51223;51.816;5.862;2022-08-30T00:58:10;5.47;;;1.52;;
64789;SDS011;51223;51.816;5.862;2022-08-30T01:00:39;1.42;;;1.27;;
64789;SDS011;51223;51.816;5.862;2022-08-30T01:03:05;2.45;;;1.50;;
64789;SDS011;51223;51.816;5.862;2022-08-30T01:05:32;2.28;;;1.52;;
64789;SDS011;51223;51.816;5.862;2022-08-30T01:08:00;1.88;;;1.30;;
64789;SDS011;51223;51.816;5.862;2022-08-30T01:10:26;1.63;;;1.25;;
64789;SDS011;51223;51.816;5.862;2022-08-30T01:12:52;3.67;;;1.20;;
64789;SDS011;51223;51.816;5.862;2022-08-30T01:15:18;2.78;;;1.50;;
64789;SDS011;51223;51.816;5.862;2022-08-30T01:17:44;4.88;;;2.25;;
64789;SDS011;51223;51.816;5.862;2022-08-30T01:20:14;3.00;;;1.70;;
64789;SDS011;51223;51.816;5.862;2022-08-30T01:25:14;4.38;;;1.70;;
64789;SDS011;51223;51.816;5.862;2022-08-30T01:27:53;3.47;;;1.40;;
64789;SDS011;51223;51.816;5.862;2022-08-30T01:30:23;5.07;;;1.92;;
64789;SDS011;51223;51.816;5.862;2022-08-30T01:32:49;2.20;;;1.60;;
64789;SDS011;51223;51.816;5.862;2022-08-30T01:35:20;4.32;;;1.55;;
64789;SDS011;51223;51.816;5.862;2022-08-30T01:37:46;3.13;;;1.70;;
64789;SDS011;51223;51.816;5.862;2022-08-30T01:40:13;3.08;;;1.67;;
64789;SDS011;51223;51.816;5.862;2022-08-30T01:42:39;1.95;;;1.10;;
64789;SDS011;51223;51.816;5.862;2022-08-30T01:45:05;1.95;;;1.17;;
64789;SDS011;51223;51.816;5.862;2022-08-30T01:47:32;3.22;;;1.77;;
64789;SDS011;51223;51.816;5.862;2022-08-30T01:49:58;2.70;;;1.73;;
64789;SDS011;51223;51.816;5.862;2022-08-30T01:52:24;5.88;;;1.95;;
64789;SDS011;51223;51.816;5.862;2022-08-30T01:54:51;3.78;;;2.05;;
64789;SDS011;51223;51.816;5.862;2022-08-30T01:57:18;5.07;;;2.00;;
64789;SDS011;51223;51.816;5.862;2022-08-30T01:59:48;6.28;;;2.40;;
64789;SDS011;51223;51.816;5.862;2022-08-30T02:02:15;2.60;;;1.55;;
64789;SDS011;51223;51.816;5.862;2022-08-30T02:04:46;8.00;;;1.90;;
64789;SDS011;51223;51.816;5.862;2022-08-30T02:07:12;2.25;;;1.25;;
64789;SDS011;51223;51.816;5.862;2022-08-30T02:09:37;2.95;;;1.70;;
64789;SDS011;51223;51.816;5.862;2022-08-30T02:12:04;3.85;;;1.92;;
64789;SDS011;51223;51.816;5.862;2022-08-30T02:14:32;2.95;;;2.20;;
64789;SDS011;51223;51.816;5.862;2022-08-30T02:16:59;2.72;;;1.23;;
64789;SDS011;51223;51.816;5.862;2022-08-30T02:19:27;7.15;;;2.08;;
64789;SDS011;51223;51.816;5.862;2022-08-30T02:21:53;3.13;;;1.77;;
64789;SDS011;51223;51.816;5.862;2022-08-30T02:24:19;4.03;;;1.60;;
64789;SDS011;51223;51.816;5.862;2022-08-30T02:26:44;2.35;;;1.27;;
64789;SDS011;51223;51.816;5.862;2022-08-30T02:29:10;1.48;;;1.27;;
64789;SDS011;51223;51.816;5.862;2022-08-30T02:31:36;2.90;;;1.80;;
64789;SDS011;51223;51.816;5.862;2022-08-30T02:34:03;4.13;;;2.17;;
64789;SDS011;51223;51.816;5.862;2022-08-30T02:36:32;3.72;;;1.60;;
64789;SDS011;51223;51.816;5.862;2022-08-30T02:38:58;7.10;;;1.60;;
64789;SDS011;51223;51.816;5.862;2022-08-30T02:41:24;3.83;;;2.17;;
64789;SDS011;51223;51.816;5.862;2022-08-30T02:43:50;2.65;;;1.52;;
64789;SDS011;51223;51.816;5.862;2022-08-30T02:46:16;2.50;;;1.65;;
64789;SDS011;51223;51.816;5.862;2022-08-30T02:48:42;3.47;;;1.83;;
64789;SDS011;51223;51.816;5.862;2022-08-30T02:51:10;3.50;;;1.85;;
64789;SDS011;51223;51.816;5.862;2022-08-30T02:53:38;2.70;;;1.75;;
64789;SDS011;51223;51.816;5.862;2022-08-30T02:56:05;5.10;;;1.55;;
64789;SDS011;51223;51.816;5.862;2022-08-30T02:58:31;4.35;;;2.08;;
64789;SDS011;51223;51.816;5.862;2022-08-30T03:00:57;2.63;;;2.00;;
64789;SDS011;51223;51.816;5.862;2022-08-30T03:03:23;2.65;;;2.17;;
64789;SDS011;51223;51.816;5.862;2022-08-30T03:05:49;4.05;;;2.33;;
64789;SDS011;51223;51.816;5.862;2022-08-30T03:08:15;2.80;;;2.03;;
64789;SDS011;51223;51.816;5.862;2022-08-30T03:10:40;3.20;;;1.90;;
64789;SDS011;51223;51.816;5.862;2022-08-30T03:13:06;4.40;;;1.60;;
64789;SDS011;51223;51.816;5.862;2022-08-30T03:15:33;4.35;;;2.38;;
64789;SDS011;51223;51.816;5.862;2022-08-30T03:18:01;1.88;;;1.38;;
64789;SDS011;51223;51.816;5.862;2022-08-30T03:20:27;4.15;;;2.60;;
64789;SDS011;51223;51.816;5.862;2022-08-30T03:22:53;2.28;;;1.98;;
64789;SDS011;51223;51.816;5.862;2022-08-30T03:25:19;7.82;;;2.55;;
64789;SDS011;51223;51.816;5.862;2022-08-30T03:27:47;4.35;;;2.47;;
64789;SDS011;51223;51.816;5.862;2022-08-30T03:30:15;3.78;;;2.40;;
64789;SDS011;51223;51.816;5.862;2022-08-30T03:32:42;3.20;;;1.85;;
64789;SDS011;51223;51.816;5.862;2022-08-30T03:35:08;5.30;;;2.00;;
64789;SDS011;51223;51.816;5.862;2022-08-30T03:37:34;5.25;;;3.58;;
64789;SDS011;51223;51.816;5.862;2022-08-30T03:40:02;5.40;;;2.50;;
64789;SDS011;51223;51.816;5.862;2022-08-30T03:42:29;4.10;;;2.95;;
64789;SDS011;51223;51.816;5.862;2022-08-30T03:44:55;2.45;;;2.20;;
64789;SDS011;51223;51.816;5.862;2022-08-30T03:47:21;3.97;;;2.83;;
64789;SDS011;51223;51.816;5.862;2022-08-30T03:49:46;5.85;;;2.85;;
64789;SDS011;51223;51.816;5.862;2022-08-30T03:52:12;3.78;;;2.55;;
64789;SDS011;51223;51.816;5.862;2022-08-30T03:54:38;4.18;;;2.67;;
64789;SDS011;51223;51.816;5.862;2022-08-30T03:57:05;2.00;;;1.45;;
64789;SDS011;51223;51.816;5.862;2022-08-30T03:59:31;4.10;;;2.60;;
64789;SDS011;51223;51.816;5.862;2022-08-30T04:01:57;2.28;;;1.85;;
64789;SDS011;51223;51.816;5.862;2022-08-30T04:04:23;2.17;;;1.67;;
64789;SDS011;51223;51.816;5.862;2022-08-30T04:06:50;3.42;;;2.22;;
64789;SDS011;51223;51.816;5.862;2022-08-30T04:09:19;2.92;;;1.95;;
64789;SDS011;51223;51.816;5.862;2022-08-30T04:11:45;2.75;;;1.70;;
64789;SDS011;51223;51.816;5.862;2022-08-30T04:14:11;2.78;;;2.22;;
64789;SDS011;51223;51.816;5.862;2022-08-30T04:16:37;5.70;;;2.55;;
64789;SDS011;51223;51.816;5.862;2022-08-30T04:19:03;2.88;;;2.28;;
64789;SDS011;51223;51.816;5.862;2022-08-30T04:21:28;2.95;;;2.40;;
64789;SDS011;51223;51.816;5.862;2022-08-30T04:23:57;5.18;;;2.70;;
64789;SDS011;51223;51.816;5.862;2022-08-30T04:26:23;4.32;;;2.42;;
64789;SDS011;51223;51.816;5.862;2022-08-30T04:28:49;3.47;;;2.38;;
64789;SDS011;51223;51.816;5.862;2022-08-30T04:31:15;2.97;;;2.15;;
64789;SDS011;51223;51.816;5.862;2022-08-30T04:33:42;5.93;;;3.10;;
64789;SDS011;51223;51.816;5.862;2022-08-30T04:36:09;3.33;;;1.70;;
64789;SDS011;51223;51.816;5.862;2022-08-30T04:38:36;4.25;;;2.28;;
64789;SDS011;51223;51.816;5.862;2022-08-30T04:41:11;2.90;;;2.33;;
64789;SDS011;51223;51.816;5.862;2022-08-30T04:43:45;3.30;;;2.50;;
64789;SDS011;51223;51.816;5.862;2022-08-30T04:46:15;2.40;;;1.88;;
64789;SDS011;51223;51.816;5.862;2022-08-30T04:48:42;5.47;;;3.00;;
64789;SDS011;51223;51.816;5.862;2022-08-30T04:51:09;3.05;;;2.25;;
64789;SDS011;51223;51.816;5.862;2022-08-30T04:53:37;7.03;;;2.60;;
64789;SDS011;51223;51.816;5.862;2022-08-30T04:56:13;2.80;;;2.17;;
64789;SDS011;51223;51.816;5.862;2022-08-30T04:58:43;4.20;;;2.13;;
64789;SDS011;51223;51.816;5.862;2022-08-30T05:01:14;2.97;;;2.22;;
64789;SDS011;51223;51.816;5.862;2022-08-30T05:03:41;2.97;;;2.38;;
64789;SDS011;51223;51.816;5.862;2022-08-30T05:06:09;1.90;;;1.60;;
64789;SDS011;51223;51.816;5.862;2022-08-30T05:08:36;1.83;;;1.60;;
64789;SDS011;51223;51.816;5.862;2022-08-30T05:11:02;3.03;;;2.22;;
64789;SDS011;51223;51.816;5.862;2022-08-30T05:13:30;2.92;;;1.90;;
64789;SDS011;51223;51.816;5.862;2022-08-30T05:15:57;2.90;;;2.17;;
64789;SDS011;51223;51.816;5.862;2022-08-30T05:18:23;2.38;;;1.90;;
64789;SDS011;51223;51.816;5.862;2022-08-30T05:20:49;3.88;;;2.13;;
64789;SDS011;51223;51.816;5.862;2022-08-30T05:23:15;4.35;;;2.40;;
64789;SDS011;51223;51.816;5.862;2022-08-30T05:25:41;3.38;;;2.13;;
64789;SDS011;51223;51.816;5.862;2022-08-30T05:28:07;3.70;;;2.25;;
64789;SDS011;51223;51.816;5.862;2022-08-30T05:30:35;1.00;;;0.75;;
64789;SDS011;51223;51.816;5.862;2022-08-30T05:33:01;2.58;;;2.05;;
64789;SDS011;51223;51.816;5.862;2022-08-30T05:35:27;3.15;;;2.22;;
64789;SDS011;51223;51.816;5.862;2022-08-30T05:37:53;5.78;;;2.15;;
64789;SDS011;51223;51.816;5.862;2022-08-30T05:40:19;3.80;;;1.95;;
64789;SDS011;51223;51.816;5.862;2022-08-30T05:42:45;2.35;;;1.88;;
64789;SDS011;51223;51.816;5.862;2022-08-30T05:45:12;3.28;;;2.38;;
64789;SDS011;51223;51.816;5.862;2022-08-30T05:47:39;3.92;;;2.60;;
64789;SDS011;51223;51.816;5.862;2022-08-30T05:50:05;3.22;;;2.05;;
64789;SDS011;51223;51.816;5.862;2022-08-30T05:52:35;4.32;;;2.47;;
64789;SDS011;51223;51.816;5.862;2022-08-30T05:55:02;2.78;;;2.10;;
64789;SDS011;51223;51.816;5.862;2022-08-30T05:57:31;3.65;;;2.00;;
64789;SDS011;51223;51.816;5.862;2022-08-30T05:59:59;3.45;;;2.33;;
64789;SDS011;51223;51.816;5.862;2022-08-30T06:02:26;2.78;;;1.92;;
64789;SDS011;51223;51.816;5.862;2022-08-30T06:04:52;3.65;;;2.33;;
64789;SDS011;51223;51.816;5.862;2022-08-30T06:07:17;2.25;;;1.60;;
64789;SDS011;51223;51.816;5.862;2022-08-30T06:09:43;3.33;;;2.00;;
64789;SDS011;51223;51.816;5.862;2022-08-30T06:12:09;2.38;;;1.92;;
64789;SDS011;51223;51.816;5.862;2022-08-30T06:14:35;3.17;;;1.95;;
64789;SDS011;51223;51.816;5.862;2022-08-30T06:17:01;2.08;;;1.85;;
64789;SDS011;51223;51.816;5.862;2022-08-30T06:19:27;2.05;;;1.85;;
64789;SDS011;51223;51.816;5.862;2022-08-30T06:21:52;3.00;;;1.77;;
64789;SDS011;51223;51.816;5.862;2022-08-30T06:24:18;2.35;;;1.85;;
64789;SDS011;51223;51.816;5.862;2022-08-30T06:26:45;3.92;;;2.13;;
64789;SDS011;51223;51.816;5.862;2022-08-30T06:29:12;1.67;;;1.40;;
64789;SDS011;51223;51.816;5.862;2022-08-30T06:31:43;2.53;;;1.90;;
64789;SDS011;51223;51.816;5.862;2022-08-30T06:34:09;2.20;;;1.70;;
64789;SDS011;51223;51.816;5.862;2022-08-30T06:36:35;2.22;;;1.60;;
64789;SDS011;51223;51.816;5.862;2022-08-30T06:39:01;3.58;;;2.28;;
64789;SDS011;51223;51.816;5.862;2022-08-30T06:41:27;4.40;;;2.15;;
64789;SDS011;51223;51.816;5.862;2022-08-30T06:43:56;2.22;;;1.75;;
64789;SDS011;51223;51.816;5.862;2022-08-30T06:46:24;1.90;;;1.65;;
64789;SDS011;51223;51.816;5.862;2022-08-30T06:48:52;1.48;;;1.33;;
64789;SDS011;51223;51.816;5.862;2022-08-30T06:51:19;3.40;;;1.80;;
64789;SDS011;51223;51.816;5.862;2022-08-30T06:53:46;3.15;;;1.92;;
64789;SDS011;51223;51.816;5.862;2022-08-30T06:56:13;2.65;;;1.63;;
64789;SDS011;51223;51.816;5.862;2022-08-30T06:58:40;7.13;;;2.00;;
64789;SDS011;51223;51.816;5.862;2022-08-30T07:01:06;4.22;;;2.33;;
64789;SDS011;51223;51.816;5.862;2022-08-30T07:03:35;3.65;;;2.00;;
64789;SDS011;51223;51.816;5.862;2022-08-30T07:06:01;2.50;;;1.63;;
64789;SDS011;51223;51.816;5.862;2022-08-30T07:08:27;1.75;;;1.40;;
64789;SDS011;51223;51.816;5.862;2022-08-30T07:10:53;2.00;;;1.25;;
64789;SDS011;51223;51.816;5.862;2022-08-30T07:13:19;1.65;;;1.30;;
64789;SDS011;51223;51.816;5.862;2022-08-30T07:15:46;1.23;;;1.08;;
64789;SDS011;51223;51.816;5.862;2022-08-30T07:18:12;2.05;;;1.60;;
64789;SDS011;51223;51.816;5.862;2022-08-30T07:20:58;1.52;;;1.40;;
64789;SDS011;51223;51.816;5.862;2022-08-30T07:23:30;1.42;;;1.23;;
64789;SDS011;51223;51.816;5.862;2022-08-30T07:25:56;2.95;;;1.45;;
64789;SDS011;51223;51.816;5.862;2022-08-30T07:28:21;4.20;;;1.38;;
64789;SDS011;51223;51.816;5.862;2022-08-30T07:30:47;1.33;;;1.20;;
64789;SDS011;51223;51.816;5.862;2022-08-30T07:33:13;1.98;;;1.70;;
64789;SDS011;51223;51.816;5.862;2022-08-30T07:35:39;0.90;;;0.63;;
64789;SDS011;51223;51.816;5.862;2022-08-30T07:38:05;1.33;;;1.00;;
64789;SDS011;51223;51.816;5.862;2022-08-30T07:40:31;3.20;;;1.23;;
64789;SDS011;51223;51.816;5.862;2022-08-30T07:42:57;1.17;;;0.98;;
64789;SDS011;51223;51.816;5.862;2022-08-30T07:45:26;2.20;;;1.50;;
64789;SDS011;51223;51.816;5.862;2022-08-30T07:47:52;3.72;;;1.00;;
64789;SDS011;51223;51.816;5.862;2022-08-30T07:50:19;1.60;;;1.10;;
64789;SDS011;51223;51.816;5.862;2022-08-30T07:52:45;2.63;;;0.68;;
64789;SDS011;51223;51.816;5.862;2022-08-30T07:55:11;3.47;;;1.30;;
64789;SDS011;51223;51.816;5.862;2022-08-30T07:57:36;0.88;;;0.75;;
64789;SDS011;51223;51.816;5.862;2022-08-30T08:00:03;4.93;;;0.80;;
64789;SDS011;51223;51.816;5.862;2022-08-30T08:02:29;1.95;;;1.10;;
64789;SDS011;51223;51.816;5.862;2022-08-30T08:04:55;2.80;;;1.08;;
64789;SDS011;51223;51.816;5.862;2022-08-30T08:07:21;0.70;;;0.70;;
64789;SDS011;51223;51.816;5.862;2022-08-30T08:09:47;0.43;;;0.43;;
64789;SDS011;51223;51.816;5.862;2022-08-30T08:12:12;4.57;;;1.20;;
64789;SDS011;51223;51.816;5.862;2022-08-30T08:14:38;0.70;;;0.70;;
64789;SDS011;51223;51.816;5.862;2022-08-30T08:17:06;0.55;;;0.47;;
64789;SDS011;51223;51.816;5.862;2022-08-30T08:19:32;1.50;;;0.98;;
64789;SDS011;51223;51.816;5.862;2022-08-30T08:21:58;0.90;;;0.60;;
64789;SDS011;51223;51.816;5.862;2022-08-30T08:24:28;0.70;;;0.70;;
64789;SDS011;51223;51.816;5.862;2022-08-30T08:26:54;1.73;;;0.95;;
64789;SDS011;51223;51.816;5.862;2022-08-30T08:29:21;1.00;;;0.60;;
64789;SDS011;51223;51.816;5.862;2022-08-30T08:31:47;6.13;;;1.25;;
64789;SDS011;51223;51.816;5.862;2022-08-30T08:34:13;1.08;;;0.60;;
64789;SDS011;51223;51.816;5.862;2022-08-30T08:36:39;1.38;;;1.00;;
64789;SDS011;51223;51.816;5.862;2022-08-30T08:39:06;0.77;;;0.70;;
64789;SDS011;51223;51.816;5.862;2022-08-30T08:44:30;4.93;;;0.50;;
64789;SDS011;51223;51.816;5.862;2022-08-30T08:47:16;1.23;;;0.52;;
64789;SDS011;51223;51.816;5.862;2022-08-30T08:50:18;1.80;;;0.85;;
64789;SDS011;51223;51.816;5.862;2022-08-30T08:52:47;3.03;;;1.13;;
64789;SDS011;51223;51.816;5.862;2022-08-30T08:55:35;3.10;;;0.60;;
64789;SDS011;51223;51.816;5.862;2022-08-30T08:58:04;0.75;;;0.70;;
64789;SDS011;51223;51.816;5.862;2022-08-30T09:00:30;1.00;;;0.55;;
64789;SDS011;51223;51.816;5.862;2022-08-30T09:03:00;0.82;;;0.82;;
64789;SDS011;51223;51.816;5.862;2022-08-30T09:05:32;0.38;;;0.38;;
64789;SDS011;51223;51.816;5.862;2022-08-30T09:08:02;1.85;;;0.80;;
64789;SDS011;51223;51.816;5.862;2022-08-30T09:10:30;1.80;;;0.80;;
64789;SDS011;51223;51.816;5.862;2022-08-30T09:12:57;0.77;;;0.63;;
64789;SDS011;51223;51.816;5.862;2022-08-30T09:15:24;0.57;;;0.57;;
64789;SDS011;51223;51.816;5.862;2022-08-30T09:17:57;3.03;;;0.65;;
64789;SDS011;51223;51.816;5.862;2022-08-30T09:20:31;0.77;;;0.77;;
64789;SDS011;51223;51.816;5.862;2022-08-30T09:23:10;3.35;;;0.90;;
64789;SDS011;51223;51.816;5.862;2022-08-30T09:25:56;1.25;;;0.75;;
64789;SDS011;51223;51.816;5.862;2022-08-30T09:28:31;1.60;;;0.80;;
64789;SDS011;51223;51.816;5.862;2022-08-30T09:31:03;1.10;;;0.70;;
64789;SDS011;51223;51.816;5.862;2022-08-30T09:33:31;1.73;;;0.65;;
64789;SDS011;51223;51.816;5.862;2022-08-30T09:36:17;0.70;;;0.70;;
64789;SDS011;51223;51.816;5.862;2022-08-30T09:38:55;2.10;;;0.77;;
64789;SDS011;51223;51.816;5.862;2022-08-30T09:41:29;1.67;;;0.70;;
64789;SDS011;51223;51.816;5.862;2022-08-30T09:44:03;3.78;;;1.00;;
64789;SDS011;51223;51.816;5.862;2022-08-30T09:46:32;2.17;;;0.82;;
64789;SDS011;51223;51.816;5.862;2022-08-30T09:48:58;3.20;;;0.50;;
64789;SDS011;51223;51.816;5.862;2022-08-30T09:51:36;2.55;;;0.75;;
64789;SDS011;51223;51.816;5.862;2022-08-30T09:54:32;0.95;;;0.75;;
64789;SDS011;51223;51.816;5.862;2022-08-30T09:57:08;2.13;;;0.75;;
64789;SDS011;51223;51.816;5.862;2022-08-30T09:59:40;0.25;;;0.25;;
64789;SDS011;51223;51.816;5.862;2022-08-30T10:18:40;0.77;;;0.63;;
64789;SDS011;51223;51.816;5.862;2022-08-30T10:21:20;1.35;;;0.80;;
64789;SDS011;51223;51.816;5.862;2022-08-30T10:26:30;3.25;;;0.50;;
64789;SDS011;51223;51.816;5.862;2022-08-30T10:29:05;0.60;;;0.60;;
64789;SDS011;51223;51.816;5.862;2022-08-30T10:31:48;3.60;;;0.60;;
64789;SDS011;51223;51.816;5.862;2022-08-30T10:34:28;0.85;;;0.75;;
64789;SDS011;51223;51.816;5.862;2022-08-30T10:37:01;2.08;;;0.65;;
64789;SDS011;51223;51.816;5.862;2022-08-30T10:39:33;0.82;;;0.70;;
64789;SDS011;51223;51.816;5.862;2022-08-30T10:42:07;1.95;;;0.70;;
64789;SDS011;51223;51.816;5.862;2022-08-30T10:44:44;0.22;;;0.22;;
64789;SDS011;51223;51.816;5.862;2022-08-30T10:47:21;0.70;;;0.60;;
64789;SDS011;51223;51.816;5.862;2022-08-30T10:52:53;0.68;;;0.50;;
64789;SDS011;51223;51.816;5.862;2022-08-30T10:55:33;0.20;;;0.20;;
64789;SDS011;51223;51.816;5.862;2022-08-30T10:58:03;0.80;;;0.60;;
64789;SDS011;51223;51.816;5.862;2022-08-30T11:03:27;5.00;;;0.73;;
64789;SDS011;51223;51.816;5.862;2022-08-30T11:14:22;2.00;;;0.88;;
64789;SDS011;51223;51.816;5.862;2022-08-30T11:16:50;1.00;;;0.50;;
64789;SDS011;51223;51.816;5.862;2022-08-30T11:19:22;1.23;;;1.00;;
64789;SDS011;51223;51.816;5.862;2022-08-30T11:21:51;1.55;;;0.45;;
64789;SDS011;51223;51.816;5.862;2022-08-30T11:24:18;0.95;;;0.60;;
64789;SDS011;51223;51.816;5.862;2022-08-30T11:40:08;8.40;;;1.10;;
64789;SDS011;51223;51.816;5.862;2022-08-30T11:42:49;5.53;;;0.55;;
64789;SDS011;51223;51.816;5.862;2022-08-30T11:50:40;0.73;;;0.68;;
64789;SDS011;51223;51.816;5.862;2022-08-30T11:59:02;7.13;;;1.40;;
64789;SDS011;51223;51.816;5.862;2022-08-30T12:01:35;3.28;;;0.88;;
64789;SDS011;51223;51.816;5.862;2022-08-30T12:14:33;1.85;;;0.50;;
64789;SDS011;51223;51.816;5.862;2022-08-30T12:17:02;1.52;;;0.82;;
64789;SDS011;51223;51.816;5.862;2022-08-30T12:19:56;2.60;;;0.95;;
64789;SDS011;51223;51.816;5.862;2022-08-30T12:22:24;3.78;;;0.90;;
64789;SDS011;51223;51.816;5.862;2022-08-30T12:24:51;1.27;;;0.75;;
64789;SDS011;51223;51.816;5.862;2022-08-30T12:29:56;0.60;;;0.60;;
64789;SDS011;51223;51.816;5.862;2022-08-30T12:32:26;2.28;;;1.10;;
64789;SDS011;51223;51.816;5.862;2022-08-30T12:34:55;3.75;;;0.80;;
64789;SDS011;51223;51.816;5.862;2022-08-30T12:37:27;0.85;;;0.73;;
64789;SDS011;51223;51.816;5.862;2022-08-30T12:40:16;1.67;;;0.60;;
64789;SDS011;51223;51.816;5.862;2022-08-30T12:42:50;2.00;;;0.75;;
64789;SDS011;51223;51.816;5.862;2022-08-30T12:45:24;1.05;;;1.05;;
64789;SDS011;51223;51.816;5.862;2022-08-30T12:48:12;1.15;;;0.93;;
64789;SDS011;51223;51.816;5.862;2022-08-30T12:50:45;0.50;;;0.50;;
64789;SDS011;51223;51.816;5.862;2022-08-30T12:56:12;3.45;;;0.55;;
64789;SDS011;51223;51.816;5.862;2022-08-30T12:58:42;3.13;;;1.40;;
64789;SDS011;51223;51.816;5.862;2022-08-30T13:01:17;5.95;;;1.08;;
64789;SDS011;51223;51.816;5.862;2022-08-30T13:09:21;4.07;;;1.02;;
64789;SDS011;51223;51.816;5.862;2022-08-30T13:11:51;0.98;;;0.50;;
64789;SDS011;51223;51.816;5.862;2022-08-30T13:14:35;3.78;;;0.80;;
64789;SDS011;51223;51.816;5.862;2022-08-30T13:17:19;1.30;;;0.77;;
64789;SDS011;51223;51.816;5.862;2022-08-30T13:19:59;1.33;;;0.90;;
64789;SDS011;51223;51.816;5.862;2022-08-30T13:25:00;1.58;;;0.70;;
64789;SDS011;51223;51.816;5.862;2022-08-30T13:27:26;1.85;;;1.08;;
64789;SDS011;51223;51.816;5.862;2022-08-30T13:29:53;1.75;;;0.60;;
64789;SDS011;51223;51.816;5.862;2022-08-30T13:32:19;1.17;;;0.85;;
64789;SDS011;51223;51.816;5.862;2022-08-30T13:34:45;1.30;;;0.45;;
64789;SDS011;51223;51.816;5.862;2022-08-30T13:37:13;3.90;;;0.77;;
64789;SDS011;51223;51.816;5.862;2022-08-30T13:39:42;1.08;;;0.73;;
64789;SDS011;51223;51.816;5.862;2022-08-30T13:42:08;0.82;;;0.70;;
64789;SDS011;51223;51.816;5.862;2022-08-30T13:44:33;0.88;;;0.77;;
64789;SDS011;51223;51.816;5.862;2022-08-30T13:46:59;1.05;;;0.50;;
64789;SDS011;51223;51.816;5.862;2022-08-30T13:49:27;1.00;;;0.63;;
64789;SDS011;51223;51.816;5.862;2022-08-30T13:51:54;1.92;;;0.82;;
64789;SDS011;51223;51.816;5.862;2022-08-30T13:54:21;2.67;;;0.85;;
64789;SDS011;51223;51.816;5.862;2022-08-30T13:56:48;1.73;;;0.90;;
64789;SDS011;51223;51.816;5.862;2022-08-30T13:59:15;0.88;;;0.47;;
64789;SDS011;51223;51.816;5.862;2022-08-30T14:01:41;3.05;;;1.67;;
64789;SDS011;51223;51.816;5.862;2022-08-30T14:04:07;1.02;;;0.60;;
64789;SDS011;51223;51.816;5.862;2022-08-30T14:06:33;0.88;;;0.77;;
64789;SDS011;51223;51.816;5.862;2022-08-30T14:08:59;2.00;;;0.95;;
64789;SDS011;51223;51.816;5.862;2022-08-30T14:11:25;2.63;;;0.98;;
64789;SDS011;51223;51.816;5.862;2022-08-30T14:13:51;0.65;;;0.60;;
64789;SDS011;51223;51.816;5.862;2022-08-30T14:16:17;0.93;;;0.50;;
64789;SDS011;51223;51.816;5.862;2022-08-30T14:18:44;1.13;;;0.57;;
64789;SDS011;51223;51.816;5.862;2022-08-30T14:21:10;0.50;;;0.50;;
64789;SDS011;51223;51.816;5.862;2022-08-30T14:23:35;3.72;;;0.80;;
64789;SDS011;51223;51.816;5.862;2022-08-30T14:26:02;2.10;;;1.38;;
64789;SDS011;51223;51.816;5.862;2022-08-30T14:28:37;0.73;;;0.60;;
64789;SDS011;51223;51.816;5.862;2022-08-30T14:31:02;0.10;;;0.10;;
64789;SDS011;51223;51.816;5.862;2022-08-30T14:33:28;1.05;;;0.80;;
64789;SDS011;51223;51.816;5.862;2022-08-30T14:35:54;2.53;;;0.98;;
64789;SDS011;51223;51.816;5.862;2022-08-30T14:38:20;2.78;;;0.60;;
64789;SDS011;51223;51.816;5.862;2022-08-30T14:40:46;2.75;;;0.90;;
64789;SDS011;51223;51.816;5.862;2022-08-30T14:43:12;0.60;;;0.60;;
64789;SDS011;51223;51.816;5.862;2022-08-30T14:45:37;1.40;;;0.70;;
64789;SDS011;51223;51.816;5.862;2022-08-30T14:48:03;1.77;;;0.80;;
64789;SDS011;51223;51.816;5.862;2022-08-30T14:50:36;0.60;;;0.60;;
64789;SDS011;51223;51.816;5.862;2022-08-30T14:53:03;0.60;;;0.60;;
64789;SDS011;51223;51.816;5.862;2022-08-30T14:55:30;1.38;;;0.57;;
64789;SDS011;51223;51.816;5.862;2022-08-30T14:57:58;1.50;;;1.27;;
64789;SDS011;51223;51.816;5.862;2022-08-30T15:00:27;0.55;;;0.52;;
64789;SDS011;51223;51.816;5.862;2022-08-30T15:02:53;1.75;;;0.50;;
64789;SDS011;51223;51.816;5.862;2022-08-30T15:05:18;0.70;;;0.70;;
64789;SDS011;51223;51.816;5.862;2022-08-30T15:07:47;1.80;;;1.02;;
64789;SDS011;51223;51.816;5.862;2022-08-30T15:10:18;0.47;;;0.47;;
64789;SDS011;51223;51.816;5.862;2022-08-30T15:12:48;3.30;;;0.90;;
64789;SDS011;51223;51.816;5.862;2022-08-30T15:15:16;2.30;;;1.00;;
64789;SDS011;51223;51.816;5.862;2022-08-30T15:17:45;0.88;;;0.65;;
64789;SDS011;51223;51.816;5.862;2022-08-30T15:20:11;1.23;;;0.70;;
64789;SDS011;51223;51.816;5.862;2022-08-30T15:22:38;2.53;;;1.20;;
64789;SDS011;51223;51.816;5.862;2022-08-30T15:25:04;1.70;;;0.90;;
64789;SDS011;51223;51.816;5.862;2022-08-30T15:27:30;0.80;;;0.65;;
64789;SDS011;51223;51.816;5.862;2022-08-30T15:29:56;0.60;;;0.60;;
64789;SDS011;51223;51.816;5.862;2022-08-30T15:32:22;1.92;;;1.27;;
64789;SDS011;51223;51.816;5.862;2022-08-30T15:34:47;1.02;;;0.70;;
64789;SDS011;51223;51.816;5.862;2022-08-30T15:37:13;2.35;;;0.68;;
64789;SDS011;51223;51.816;5.862;2022-08-30T15:39:49;1.00;;;0.65;;
64789;SDS011;51223;51.816;5.862;2022-08-30T15:42:15;1.17;;;0.63;;
64789;SDS011;51223;51.816;5.862;2022-08-30T15:44:50;1.35;;;0.90;;
64789;SDS011;51223;51.816;5.862;2022-08-30T15:47:18;0.88;;;0.63;;
64789;SDS011;51223;51.816;5.862;2022-08-30T15:49:44;1.98;;;0.73;;
64789;SDS011;51223;51.816;5.862;2022-08-30T15:52:10;0.68;;;0.52;;
64789;SDS011;51223;51.816;5.862;2022-08-30T15:54:36;0.90;;;0.65;;
64789;SDS011;51223;51.816;5.862;2022-08-30T15:57:02;1.55;;;0.55;;
64789;SDS011;51223;51.816;5.862;2022-08-30T15:59:28;4.82;;;1.08;;
64789;SDS011;51223;51.816;5.862;2022-08-30T16:01:55;1.75;;;0.50;;
64789;SDS011;51223;51.816;5.862;2022-08-30T16:04:21;1.00;;;0.60;;
64789;SDS011;51223;51.816;5.862;2022-08-30T16:06:47;1.13;;;0.47;;
64789;SDS011;51223;51.816;5.862;2022-08-30T16:09:13;1.40;;;0.60;;
64789;SDS011;51223;51.816;5.862;2022-08-30T16:11:40;3.20;;;0.82;;
64789;SDS011;51223;51.816;5.862;2022-08-30T16:14:06;0.70;;;0.68;;
64789;SDS011;51223;51.816;5.862;2022-08-30T16:16:33;0.50;;;0.50;;
64789;SDS011;51223;51.816;5.862;2022-08-30T16:18:59;2.08;;;0.68;;
64789;SDS011;51223;51.816;5.862;2022-08-30T16:21:26;0.50;;;0.50;;
64789;SDS011;51223;51.816;5.862;2022-08-30T16:23:54;1.65;;;0.80;;